Airfield :
LOGIN :

Register | Disclaimer

   EN    FR    IT 

 










Legend :    VFR   Marginal VFR   IFR   Intensive IFR   Very Intensive IFR
Visi :
Ceiling :
>= 8 km
>= 3000ft
5 to 8 km
1000 to 3000 ft
1500m to 5 km
500 to 1000 ft
800 to 1500m
200 to 500 ft
< 800m
< 200 ft
Symbols :   Thunderstorms  Fog  Heavy snow  Heavy precipitations  Wind > 20 kt
SIGMETs :     Misc.  Thunderstorms  Icing  Turbulence  Mountain Waves  Volcanic Ashes







- Airport Elevation : 233 ft
- IATA code : REU


LERS - Reus Tarragona

CURRENT METAR :
  • 262030Z VRB02KT 9999 FEW050 16/15 Q1014

EXPIRED METARs :
  • 262000Z 08003KT 050V110 9999 FEW050 16/15 Q1014
  • 261930Z 11003KT 070V130 9999 FEW050 17/15 Q1014
  • 261900Z VRB01KT 9999 SCT050 18/15 Q1014
  • 261830Z 10003KT 060V160 9999 FEW050 18/15 Q1014
  • 261800Z 10004KT 040V140 9999 FEW040TCU SCT050 19/15 Q1014

TAF TAF LERS
Valid from the 26 at 21:00 until the 27 at 21:00 UTC


262000Z 2621/2721 28010KT CAVOK TX26/2712Z TN14/2706Z
TEMPO 2621/2624 VRB04KT
BECMG 2714/2716 20010KT
BECMG 2718/2720 06005KT
No reported NOTAMs for that airfield.
1 SIGMET reported for the Barcelona FIR (LECB) :
 
Severe turbulence
LECB SIGMET 1 VALID 261900/262300 LEVA
LECB BARCELONA UIR SEV TURB OBS AT 1833Z E OF LINE N4207 E00401 - N3825 E00258 FL250/320 MOV SSW 10KT NC=



MET'MAP, your aeronautical weather chart ! - Copyright ORBIFLY December 2007 - Disclaimer

ORBIFLY MET'MAP TEAM :

Programming & Development : Alexandra Zaïnal
Concept & Development : Baudouin d'Aumeries
Co-Development & Prog : Marc-Olivier Méhu
Technical & hardware support : Manuel Goepfert

Contact : metmap@orbifly.com




SOURCES & CREDITS :

   NOAA